createdAt,value
2023-12-15T00:04:01.577Z,75.50
2023-12-15T00:09:04.378Z,75.65
2023-12-15T00:14:06.951Z,75.76
2023-12-15T00:19:09.617Z,75.51
2023-12-15T00:24:12.294Z,75.57
2023-12-15T00:29:14.943Z,75.57
2023-12-15T00:34:17.509Z,75.88
2023-12-15T00:39:20.009Z,75.87
2023-12-15T00:44:22.657Z,75.78
2023-12-15T00:49:26.034Z,76.08
2023-12-15T00:54:28.639Z,76.05
2023-12-15T00:59:31.286Z,76.02
2023-12-15T01:04:34.539Z,76.21
2023-12-15T01:09:38.048Z,76.11
2023-12-15T01:14:40.702Z,76.28
2023-12-15T01:19:43.218Z,76.41
2023-12-15T01:24:45.818Z,76.33
2023-12-15T01:29:48.423Z,76.41
2023-12-15T01:34:51.087Z,76.45
2023-12-15T01:39:53.683Z,76.56
2023-12-15T01:44:56.223Z,76.54
2023-12-15T01:49:59.370Z,76.49
2023-12-15T01:55:01.967Z,76.72
2023-12-15T02:00:08.550Z,76.68
2023-12-15T02:05:17.104Z,76.64
2023-12-15T02:10:20.004Z,76.71
2023-12-15T02:15:22.803Z,76.62
2023-12-15T02:20:25.443Z,76.67
2023-12-15T02:25:28.110Z,76.21
2023-12-15T02:30:30.719Z,76.53
2023-12-15T02:35:33.522Z,76.48
2023-12-15T02:40:39.846Z,76.70
2023-12-15T02:45:42.388Z,76.90
2023-12-15T02:50:44.928Z,76.74
2023-12-15T02:55:47.479Z,76.57
2023-12-15T03:00:50.135Z,76.51
2023-12-15T03:05:52.776Z,76.62
2023-12-15T03:10:59.628Z,76.42
2023-12-15T03:16:10.904Z,76.63
2023-12-15T03:21:13.639Z,76.37
2023-12-15T03:26:16.328Z,76.39
2023-12-15T03:31:18.886Z,76.46
2023-12-15T03:36:21.449Z,76.30
2023-12-15T03:41:24.075Z,76.54
2023-12-15T03:46:27.149Z,76.28
2023-12-15T03:51:29.813Z,76.11
2023-12-15T03:56:33.409Z,76.24
2023-12-15T04:01:36.220Z,76.13
2023-12-15T04:06:38.765Z,76.08
2023-12-15T04:11:41.329Z,75.92
2023-12-15T04:16:43.980Z,76.12
2023-12-15T04:21:46.485Z,76.10
2023-12-15T04:26:48.958Z,75.96
2023-12-15T04:31:51.469Z,76.03
2023-12-15T04:36:53.965Z,75.93
2023-12-15T04:41:56.409Z,75.80
2023-12-15T04:46:59.117Z,76.03
2023-12-15T04:52:01.721Z,76.30
2023-12-15T04:57:04.524Z,75.99
2023-12-15T05:02:07.762Z,75.89
2023-12-15T05:07:11.109Z,76.04
2023-12-15T05:12:13.677Z,76.04
2023-12-15T05:17:16.166Z,75.99
2023-12-15T05:22:18.717Z,75.98
2023-12-15T05:27:21.253Z,76.23
2023-12-15T05:32:24.270Z,76.04
2023-12-15T05:37:27.212Z,75.95
2023-12-15T05:42:29.685Z,76.08
2023-12-15T05:47:37.920Z,75.88
2023-12-15T05:52:40.832Z,76.01
2023-12-15T05:57:43.414Z,76.13
2023-12-15T06:02:46.367Z,76.00
2023-12-15T06:07:49.006Z,76.13
2023-12-15T06:12:51.615Z,75.85
2023-12-15T06:17:54.333Z,76.17
2023-12-15T06:22:58.765Z,75.85
2023-12-15T06:28:01.449Z,75.86
2023-12-15T06:33:06.727Z,76.13
2023-12-15T06:38:09.555Z,76.10
2023-12-15T06:43:12.097Z,76.04
2023-12-15T06:48:14.752Z,76.16
2023-12-15T06:53:19.060Z,76.03
2023-12-15T06:58:21.777Z,75.97
2023-12-15T07:03:24.406Z,75.92
2023-12-15T07:08:27.190Z,75.99
2023-12-15T07:13:29.740Z,75.96
2023-12-15T07:18:34.496Z,75.94
2023-12-15T07:23:37.297Z,76.05
2023-12-15T07:28:39.836Z,76.25
2023-12-15T07:33:42.610Z,75.97
2023-12-15T07:38:45.367Z,76.03
2023-12-15T07:43:47.863Z,76.07
2023-12-15T07:48:50.443Z,75.98
2023-12-15T07:53:52.993Z,76.00
2023-12-15T07:58:56.670Z,75.96
2023-12-15T08:03:59.226Z,75.87
2023-12-15T08:09:01.697Z,75.97
2023-12-15T08:14:04.872Z,76.01
2023-12-15T08:19:10.200Z,76.07
2023-12-15T08:24:12.821Z,75.99
2023-12-15T08:29:15.444Z,76.12
2023-12-15T08:34:18.287Z,75.98
2023-12-15T08:39:20.918Z,75.89
2023-12-15T08:44:29.381Z,75.82
2023-12-15T08:49:36.637Z,75.86
2023-12-15T08:54:39.136Z,76.05
2023-12-15T08:59:42.374Z,75.92
2023-12-15T09:04:55.568Z,75.92
2023-12-15T09:10:07.331Z,75.88
2023-12-15T09:15:10.016Z,75.84
2023-12-15T09:20:13.958Z,75.92
2023-12-15T09:25:16.532Z,75.92
2023-12-15T09:30:19.135Z,76.06
2023-12-15T09:35:21.606Z,75.87
2023-12-15T09:40:25.208Z,75.77
2023-12-15T09:45:27.727Z,75.70
2023-12-15T09:50:33.642Z,75.99
2023-12-15T09:55:36.892Z,75.72
2023-12-15T10:00:40.252Z,75.82
2023-12-15T10:05:43.607Z,75.73
2023-12-15T10:10:46.604Z,75.77
2023-12-15T10:15:52.658Z,75.81
2023-12-15T10:20:56.664Z,75.64
2023-12-15T10:26:05.765Z,75.62
2023-12-15T10:31:09.274Z,75.54
2023-12-15T10:36:14.399Z,75.60
2023-12-15T10:41:17.189Z,75.72
2023-12-15T10:46:22.259Z,75.55
2023-12-15T10:51:26.449Z,75.86
2023-12-15T10:56:29.119Z,75.62
2023-12-15T11:01:33.094Z,75.34
2023-12-15T11:06:35.648Z,75.74
2023-12-15T11:11:39.530Z,75.74
2023-12-15T11:16:43.389Z,75.64
2023-12-15T11:21:46.049Z,75.65
2023-12-15T11:26:50.465Z,75.85
2023-12-15T11:31:56.425Z,75.74
2023-12-15T11:36:59.001Z,75.75
2023-12-15T11:42:02.550Z,75.60
2023-12-15T11:47:05.701Z,75.70
2023-12-15T11:52:11.745Z,75.88
2023-12-15T11:57:14.440Z,75.77
2023-12-15T12:02:18.059Z,75.75
2023-12-15T12:07:22.058Z,75.78
2023-12-15T12:12:24.624Z,75.59
2023-12-15T12:17:27.444Z,75.65
2023-12-15T12:22:30.129Z,75.65
2023-12-15T12:27:34.753Z,75.49
2023-12-15T12:32:37.669Z,75.59
2023-12-15T12:37:40.874Z,75.38
2023-12-15T12:42:43.366Z,75.55
2023-12-15T12:47:50.084Z,75.57
2023-12-15T12:52:54.623Z,75.63
2023-12-15T12:57:58.007Z,75.57
2023-12-15T13:03:00.631Z,75.47
2023-12-15T13:08:03.542Z,75.40
2023-12-15T13:13:06.561Z,75.67
2023-12-15T13:18:11.858Z,75.59
2023-12-15T13:23:15.293Z,75.55
2023-12-15T13:28:17.934Z,75.34
2023-12-15T13:33:22.019Z,75.30
2023-12-15T13:38:24.713Z,75.12
2023-12-15T13:43:27.227Z,75.19
2023-12-15T13:48:29.862Z,74.88
2023-12-15T13:53:32.470Z,74.96
2023-12-15T13:58:35.386Z,74.82
2023-12-15T14:03:38.089Z,74.73
2023-12-15T14:08:41.419Z,74.58
2023-12-15T14:13:44.169Z,74.44
2023-12-15T14:18:47.130Z,74.64
2023-12-15T14:23:50.034Z,74.53
2023-12-15T14:28:53.223Z,74.65
2023-12-15T14:33:55.996Z,74.25
2023-12-15T14:38:58.823Z,74.46
2023-12-15T14:44:06.528Z,74.53
2023-12-15T14:49:09.401Z,74.47
2023-12-15T14:54:12.032Z,74.45
2023-12-15T14:59:14.533Z,74.42
2023-12-15T15:04:17.323Z,74.58
2023-12-15T15:09:20.296Z,74.61
2023-12-15T15:14:23.304Z,74.62
2023-12-15T15:19:27.882Z,74.55
2023-12-15T15:24:30.868Z,74.49
2023-12-15T15:29:33.528Z,74.65
2023-12-15T15:34:42.600Z,74.60
2023-12-15T15:39:50.883Z,74.49
2023-12-15T15:44:53.824Z,74.24
2023-12-15T15:49:57.730Z,74.52
2023-12-15T15:55:00.936Z,74.47
2023-12-15T16:00:05.191Z,74.40
2023-12-15T16:05:13.706Z,74.26
2023-12-15T16:10:16.653Z,74.21
2023-12-15T16:15:19.324Z,74.18
2023-12-15T16:20:24.240Z,73.82
2023-12-15T16:25:26.768Z,73.93
2023-12-15T16:30:29.345Z,73.33
2023-12-15T16:35:32.082Z,73.46
2023-12-15T16:40:34.746Z,73.55
2023-12-15T16:45:37.496Z,73.54
2023-12-15T16:50:40.110Z,73.27
2023-12-15T16:55:42.619Z,73.31
2023-12-15T17:00:45.321Z,73.29
2023-12-15T17:05:48.364Z,73.41
2023-12-15T17:10:51.054Z,73.01
2023-12-15T17:15:53.652Z,73.04
2023-12-15T17:20:56.384Z,73.06
2023-12-15T17:25:59.137Z,73.12
2023-12-15T17:31:02.234Z,72.92
2023-12-15T17:36:05.713Z,72.75
2023-12-15T17:41:08.533Z,73.01
2023-12-15T17:46:25.232Z,72.60
2023-12-15T17:51:27.970Z,72.79
2023-12-15T17:56:33.457Z,72.90
2023-12-15T18:01:36.270Z,72.68
2023-12-15T18:06:39.203Z,72.42
2023-12-15T18:11:41.803Z,72.44
2023-12-15T18:16:44.398Z,72.43
2023-12-15T18:21:47.038Z,72.45
2023-12-15T18:26:49.871Z,72.31
2023-12-15T18:31:52.631Z,72.31
2023-12-15T18:36:55.522Z,72.09
2023-12-15T18:41:58.215Z,72.12
2023-12-15T18:47:00.907Z,71.98
2023-12-15T18:52:04.087Z,71.85
2023-12-15T18:57:06.670Z,71.55
2023-12-15T19:02:10.097Z,71.36
2023-12-15T19:07:12.785Z,71.36
2023-12-15T19:12:15.385Z,71.08
2023-12-15T19:17:18.729Z,71.23
2023-12-15T19:22:21.508Z,70.71
2023-12-15T19:27:26.453Z,71.11
2023-12-15T19:32:37.601Z,70.85
2023-12-15T19:37:41.237Z,70.77
2023-12-15T19:42:44.702Z,70.80
2023-12-15T19:47:51.769Z,70.59
2023-12-15T19:52:55.238Z,70.24
2023-12-15T19:57:57.866Z,70.40
2023-12-15T20:03:00.721Z,70.19
2023-12-15T20:08:03.266Z,70.08
2023-12-15T20:13:05.932Z,70.23
2023-12-15T20:18:08.714Z,70.26
2023-12-15T20:23:11.372Z,70.11
2023-12-15T20:28:15.040Z,69.95
2023-12-15T20:33:17.736Z,70.04
2023-12-15T20:38:22.364Z,70.09
2023-12-15T20:43:25.668Z,70.09
2023-12-15T20:48:28.708Z,70.04
2023-12-15T20:53:31.295Z,69.95
2023-12-15T20:58:33.874Z,69.88
2023-12-15T21:03:37.751Z,70.04
2023-12-15T21:08:40.289Z,69.96
2023-12-15T21:13:43.038Z,69.75
2023-12-15T21:18:45.678Z,69.98
2023-12-15T21:23:48.301Z,70.02
2023-12-15T21:28:51.082Z,69.93
2023-12-15T21:33:53.796Z,69.99
2023-12-15T21:38:56.452Z,69.99
2023-12-15T21:43:58.992Z,70.25
2023-12-15T21:49:01.716Z,70.11
2023-12-15T21:54:07.681Z,69.97
2023-12-15T21:59:10.253Z,70.06
2023-12-15T22:04:13.197Z,70.18
2023-12-15T22:09:15.923Z,70.35
2023-12-15T22:14:23.748Z,70.20
2023-12-15T22:19:28.882Z,70.46
2023-12-15T22:24:31.584Z,70.49
2023-12-15T22:29:34.116Z,70.48
2023-12-15T22:34:36.884Z,70.68
2023-12-15T22:39:39.928Z,70.55
2023-12-15T22:44:42.449Z,70.52
2023-12-15T22:49:45.116Z,70.40
2023-12-15T22:54:50.838Z,70.72
2023-12-15T22:59:53.495Z,70.66
2023-12-15T23:04:56.107Z,70.95
2023-12-15T23:09:58.710Z,70.89
2023-12-15T23:15:07.370Z,70.90
2023-12-15T23:20:19.054Z,70.98
2023-12-15T23:25:21.760Z,70.97
2023-12-15T23:30:24.563Z,71.18
2023-12-15T23:35:27.077Z,71.31
2023-12-15T23:40:29.616Z,71.14
2023-12-15T23:45:32.370Z,71.29
2023-12-15T23:50:34.936Z,71.38
2023-12-15T23:55:40.459Z,71.29
